createdAt,value
2019-05-02T00:02:13.571Z,12.28
2019-05-02T00:04:45.518Z,12.27
2019-05-02T00:07:20.227Z,12.31
2019-05-02T00:09:51.495Z,12.33
2019-05-02T00:12:24.190Z,12.33
2019-05-02T00:14:56.528Z,12.32
2019-05-02T00:17:30.426Z,12.32
2019-05-02T00:20:02.442Z,12.32
2019-05-02T00:22:34.722Z,12.32
2019-05-02T00:25:11.154Z,12.34
2019-05-02T00:27:41.739Z,12.31
2019-05-02T00:30:15.702Z,12.27
2019-05-02T00:32:47.675Z,12.27
2019-05-02T00:35:20.561Z,12.29
2019-05-02T00:37:52.517Z,12.32
2019-05-02T00:40:26.111Z,12.32
2019-05-02T00:42:59.622Z,12.35
2019-05-02T00:45:32.332Z,12.35
2019-05-02T00:48:06.746Z,12.36
2019-05-02T00:50:40.723Z,12.37
2019-05-02T00:53:13.635Z,12.37
2019-05-02T00:55:45.559Z,12.38
2019-05-02T00:58:17.572Z,12.39
2019-05-02T01:01:09.486Z,12.40
2019-05-02T01:03:47.074Z,12.40
2019-05-02T01:06:17.121Z,12.41
2019-05-02T01:08:49.050Z,12.41
2019-05-02T01:11:21.005Z,12.43
2019-05-02T01:13:55.835Z,12.45
2019-05-02T01:16:26.979Z,12.44
2019-05-02T01:18:59.195Z,12.46
2019-05-02T01:21:33.943Z,12.47
2019-05-02T01:24:04.980Z,12.47
2019-05-02T01:26:44.711Z,12.46
2019-05-02T01:29:29.865Z,12.47
2019-05-02T01:32:06.809Z,12.44
2019-05-02T01:34:54.423Z,12.43
2019-05-02T01:37:42.668Z,12.44
2019-05-02T01:40:17.751Z,12.42
2019-05-02T01:42:51.102Z,12.43
2019-05-02T01:45:23.550Z,12.45
2019-05-02T01:47:55.493Z,12.44
2019-05-02T01:50:28.966Z,12.43
2019-05-02T01:53:01.108Z,12.42
2019-05-02T01:55:33.056Z,12.42
2019-05-02T01:58:05.001Z,12.42
2019-05-02T02:00:40.837Z,12.43
2019-05-02T02:03:10.598Z,12.42
2019-05-02T02:05:43.007Z,12.41
2019-05-02T02:08:14.955Z,12.41
2019-05-02T02:10:50.683Z,12.42
2019-05-02T02:13:20.554Z,12.41
2019-05-02T02:15:52.526Z,12.43
2019-05-02T02:18:27.722Z,12.42
2019-05-02T02:21:03.647Z,12.43
2019-05-02T02:23:37.554Z,12.44
2019-05-02T02:26:14.037Z,12.43
2019-05-02T02:28:45.979Z,12.41
2019-05-02T02:31:21.408Z,12.42
2019-05-02T02:33:53.353Z,12.43
2019-05-02T02:36:31.272Z,12.42
2019-05-02T02:39:17.139Z,12.41
2019-05-02T02:41:52.382Z,12.41
2019-05-02T02:44:24.578Z,12.42
2019-05-02T02:46:56.553Z,12.42
2019-05-02T02:49:28.525Z,12.43
2019-05-02T02:52:04.861Z,12.44
2019-05-02T02:54:36.622Z,12.42
2019-05-02T02:59:39.100Z,12.40
2019-05-02T03:02:12.248Z,12.40
2019-05-02T03:04:46.421Z,12.39
2019-05-02T03:07:25.955Z,12.39
2019-05-02T03:09:52.249Z,12.39
2019-05-02T03:12:26.211Z,12.39
2019-05-02T03:14:59.784Z,12.38
2019-05-02T03:17:31.881Z,12.39
2019-05-02T03:20:08.568Z,12.40
2019-05-02T03:22:41.975Z,12.41
2019-05-02T03:25:18.142Z,12.42
2019-05-02T03:27:48.413Z,12.43
2019-05-02T03:30:32.356Z,12.46
2019-05-02T03:33:06.283Z,12.48
2019-05-02T03:35:42.917Z,12.47
2019-05-02T03:38:02.239Z,12.47
2019-05-02T03:40:38.976Z,12.45
2019-05-02T03:43:08.713Z,12.46
2019-05-02T03:45:43.128Z,12.45
2019-05-02T03:48:18.389Z,12.43
2019-05-02T03:50:49.251Z,12.38
2019-05-02T03:53:25.262Z,12.39
2019-05-02T03:55:58.175Z,12.41
2019-05-02T03:58:31.556Z,12.43
2019-05-02T04:01:04.048Z,12.44
2019-05-02T04:03:40.754Z,12.45
2019-05-02T04:06:13.804Z,12.46
2019-05-02T04:08:45.288Z,12.44
2019-05-02T04:11:20.983Z,12.44
2019-05-02T04:13:55.236Z,12.44
2019-05-02T04:16:29.592Z,12.43
2019-05-02T04:19:03.075Z,12.43
2019-05-02T04:21:35.738Z,12.40
2019-05-02T04:24:15.195Z,12.40
2019-05-02T04:26:51.990Z,12.38
2019-05-02T04:29:16.898Z,12.38
2019-05-02T04:31:48.907Z,12.39
2019-05-02T04:34:21.127Z,12.39
2019-05-02T04:37:01.319Z,12.40
2019-05-02T04:39:31.497Z,12.40
2019-05-02T04:42:12.940Z,12.37
2019-05-02T04:44:44.371Z,12.37
2019-05-02T04:47:17.546Z,12.37
2019-05-02T04:49:49.112Z,12.41
2019-05-02T04:52:22.665Z,12.43
2019-05-02T04:55:08.402Z,12.45
2019-05-02T04:57:37.003Z,12.44
2019-05-02T05:00:06.255Z,12.46
2019-05-02T05:02:39.353Z,12.48
2019-05-02T05:05:10.074Z,12.49
2019-05-02T05:07:46.137Z,12.51
2019-05-02T05:10:18.332Z,12.51
2019-05-02T05:12:49.560Z,12.51
2019-05-02T05:15:35.929Z,12.48
2019-05-02T05:17:55.181Z,12.47
2019-05-02T05:22:58.089Z,12.47
2019-05-02T05:25:38.129Z,12.50
2019-05-02T05:28:11.768Z,12.44
2019-05-02T05:30:46.701Z,12.35
2019-05-02T05:33:18.257Z,12.34
2019-05-02T05:35:52.525Z,12.33
2019-05-02T05:38:28.590Z,12.33
2019-05-02T05:40:58.114Z,12.32
2019-05-02T05:43:30.258Z,12.35
2019-05-02T05:46:12.364Z,12.35
2019-05-02T05:48:37.182Z,12.31
2019-05-02T05:51:11.827Z,12.32
2019-05-02T05:53:43.161Z,12.33
2019-05-02T05:56:15.114Z,12.38
2019-05-02T05:58:52.425Z,12.44
2019-05-02T06:01:26.135Z,12.52
2019-05-02T06:03:55.120Z,12.56
2019-05-02T06:06:27.543Z,12.53
2019-05-02T06:08:59.870Z,12.55
2019-05-02T06:11:32.171Z,12.57
2019-05-02T06:14:06.260Z,12.59
2019-05-02T06:16:38.686Z,12.60
2019-05-02T06:19:17.895Z,12.54
2019-05-02T06:21:47.785Z,12.52
2019-05-02T06:24:19.750Z,12.54
2019-05-02T06:26:52.002Z,12.54
2019-05-02T06:29:23.969Z,12.57
2019-05-02T06:31:59.000Z,12.59
2019-05-02T06:34:30.963Z,12.59
2019-05-02T06:37:03.249Z,12.61
2019-05-02T06:39:35.199Z,12.62
2019-05-02T06:42:07.519Z,12.63
2019-05-02T06:44:39.486Z,12.65
2019-05-02T06:47:11.503Z,12.68
2019-05-02T06:49:43.751Z,12.72
2019-05-02T06:52:15.700Z,12.71
2019-05-02T06:54:47.913Z,12.73
2019-05-02T06:57:24.089Z,12.72
2019-05-02T06:59:56.499Z,12.71
2019-05-02T07:02:33.589Z,12.74
2019-05-02T07:05:02.249Z,12.77
2019-05-02T07:07:36.998Z,12.80
2019-05-02T07:10:09.545Z,12.81
2019-05-02T07:12:41.506Z,12.83
2019-05-02T07:15:33.567Z,12.86
2019-05-02T07:18:10.692Z,12.90
2019-05-02T07:20:42.465Z,12.89
2019-05-02T07:23:16.240Z,12.90
2019-05-02T07:25:48.449Z,12.91
2019-05-02T07:28:20.404Z,12.90
2019-05-02T07:30:54.592Z,12.90
2019-05-02T07:33:26.003Z,12.87
2019-05-02T07:36:01.410Z,12.86
2019-05-02T07:38:33.583Z,12.86
2019-05-02T07:41:05.814Z,12.86
2019-05-02T07:43:39.500Z,12.85
2019-05-02T07:46:11.460Z,12.84
2019-05-02T07:48:43.686Z,12.86
2019-05-02T07:51:17.297Z,12.88
2019-05-02T07:53:49.829Z,12.88
2019-05-02T07:56:23.693Z,12.90
2019-05-02T07:58:55.715Z,12.94
2019-05-02T08:01:27.685Z,13.00
2019-05-02T08:04:04.247Z,13.03
2019-05-02T08:06:35.321Z,12.77
2019-05-02T08:09:09.611Z,13.06
2019-05-02T08:11:43.085Z,13.09
2019-05-02T08:14:15.052Z,13.08
2019-05-02T08:17:04.425Z,13.09
2019-05-02T08:19:23.894Z,13.11
2019-05-02T08:21:56.108Z,13.13
2019-05-02T08:24:28.062Z,13.13
2019-05-02T08:27:07.579Z,13.12
2019-05-02T08:29:40.072Z,13.09
2019-05-02T08:32:13.290Z,13.09
2019-05-02T08:34:50.928Z,13.11
2019-05-02T08:37:19.062Z,13.14
2019-05-02T08:39:51.020Z,13.17
2019-05-02T08:42:22.962Z,13.17
2019-05-02T08:44:56.239Z,13.17
2019-05-02T08:47:30.502Z,13.18
2019-05-02T08:50:02.782Z,13.21
2019-05-02T08:52:36.933Z,13.27
2019-05-02T08:55:09.755Z,13.32
2019-05-02T08:57:42.670Z,13.36
2019-05-02T09:00:15.830Z,13.38
2019-05-02T09:02:47.795Z,13.41
2019-05-02T09:05:19.746Z,13.43
2019-05-02T09:07:52.059Z,13.40
2019-05-02T09:10:24.012Z,13.36
2019-05-02T09:12:55.948Z,13.34
2019-05-02T09:15:27.899Z,13.33
2019-05-02T09:17:59.836Z,13.32
2019-05-02T09:20:31.984Z,13.33
2019-05-02T09:23:09.511Z,13.32
2019-05-02T09:25:42.837Z,13.29
2019-05-02T09:28:17.186Z,13.28
2019-05-02T09:30:48.034Z,13.27
2019-05-02T09:33:19.985Z,13.25
2019-05-02T09:35:51.959Z,13.27
2019-05-02T09:38:24.282Z,13.33
2019-05-02T09:40:59.060Z,13.41
2019-05-02T09:43:34.876Z,13.47
2019-05-02T09:46:07.362Z,13.50
2019-05-02T09:48:38.714Z,13.49
2019-05-02T09:51:16.756Z,13.51
2019-05-02T09:53:44.657Z,13.50
2019-05-02T09:56:16.619Z,13.50
2019-05-02T09:58:49.377Z,13.48
2019-05-02T10:01:29.363Z,13.48
2019-05-02T10:04:02.384Z,13.49
2019-05-02T10:06:34.722Z,13.52
2019-05-02T10:09:11.921Z,13.58
2019-05-02T10:11:43.431Z,13.65
2019-05-02T10:14:15.686Z,13.69
2019-05-02T10:16:47.887Z,13.74
2019-05-02T10:19:19.829Z,13.76
2019-05-02T10:21:55.026Z,13.78
2019-05-02T10:24:25.801Z,13.80
2019-05-02T10:27:04.209Z,13.85
2019-05-02T10:29:32.935Z,13.94
2019-05-02T10:32:07.688Z,14.04
2019-05-02T10:34:39.114Z,14.09
2019-05-02T10:37:13.987Z,14.10
2019-05-02T10:39:45.933Z,14.11
2019-05-02T10:42:18.542Z,14.09
2019-05-02T10:44:52.129Z,14.06
2019-05-02T10:47:24.265Z,14.07
2019-05-02T10:50:11.666Z,14.08
2019-05-02T10:52:44.100Z,14.08
2019-05-02T10:55:17.294Z,14.11
2019-05-02T10:57:52.169Z,14.16
2019-05-02T11:00:29.244Z,14.14
2019-05-02T11:03:06.781Z,14.12
2019-05-02T11:05:57.898Z,14.09
2019-05-02T11:08:27.804Z,14.02
2019-05-02T11:11:01.999Z,13.98
2019-05-02T11:13:38.140Z,13.94
2019-05-02T11:16:32.023Z,13.94
2019-05-02T11:19:07.948Z,13.91
2019-05-02T11:21:53.514Z,13.90
2019-05-02T11:24:14.450Z,13.88
2019-05-02T11:26:46.522Z,13.88
2019-05-02T11:29:18.470Z,13.87
2019-05-02T11:31:52.104Z,13.89
2019-05-02T11:34:24.374Z,13.89
2019-05-02T11:36:59.011Z,13.86
2019-05-02T11:39:37.498Z,13.85
2019-05-02T11:42:05.322Z,13.83
2019-05-02T11:44:37.295Z,13.83
2019-05-02T11:47:09.375Z,13.54
2019-05-02T11:49:42.528Z,13.78
2019-05-02T11:52:15.589Z,13.75
2019-05-02T11:54:48.662Z,13.73
2019-05-02T11:57:28.331Z,13.71
2019-05-02T11:59:59.328Z,13.70
2019-05-02T12:02:37.736Z,13.70
2019-05-02T12:05:12.789Z,13.75
2019-05-02T12:07:44.845Z,13.79
2019-05-02T12:10:21.636Z,13.86
2019-05-02T12:12:53.623Z,13.90
2019-05-02T12:15:26.202Z,13.96
2019-05-02T12:17:59.649Z,14.04
2019-05-02T12:20:33.930Z,14.07
2019-05-02T12:23:05.741Z,14.07
2019-05-02T12:25:37.668Z,14.00
2019-05-02T12:28:09.612Z,13.92
2019-05-02T12:30:42.014Z,13.87
2019-05-02T12:33:14.800Z,13.84
2019-05-02T12:35:46.751Z,13.90
2019-05-02T12:38:18.709Z,13.96
2019-05-02T12:40:52.060Z,14.03
2019-05-02T12:43:24.077Z,14.03
2019-05-02T12:45:56.020Z,14.01
2019-05-02T12:48:28.014Z,14.01
2019-05-02T12:51:01.911Z,14.01
2019-05-02T12:53:34.114Z,13.98
2019-05-02T12:56:06.127Z,13.93
2019-05-02T12:58:38.388Z,13.83
2019-05-02T13:01:12.290Z,13.77
2019-05-02T13:03:45.637Z,13.74
2019-05-02T13:06:17.578Z,13.69
2019-05-02T13:08:49.543Z,13.66
2019-05-02T13:11:32.123Z,13.65
2019-05-02T13:14:04.354Z,13.59
2019-05-02T13:16:36.375Z,13.58
2019-05-02T13:19:08.459Z,13.58
2019-05-02T13:21:44.993Z,13.58
2019-05-02T13:24:17.616Z,13.52
2019-05-02T13:26:53.945Z,13.45
2019-05-02T13:29:24.039Z,13.42
2019-05-02T13:32:03.557Z,13.39
2019-05-02T13:34:43.644Z,13.37
2019-05-02T13:37:15.410Z,13.33
2019-05-02T13:40:05.143Z,13.29
2019-05-02T13:42:37.164Z,13.28
2019-05-02T13:45:27.742Z,13.25
2019-05-02T13:47:59.775Z,13.24
2019-05-02T13:50:31.818Z,13.23
2019-05-02T13:53:03.820Z,13.26
2019-05-02T13:55:50.037Z,13.28
2019-05-02T13:58:29.337Z,13.28
2019-05-02T14:00:55.696Z,13.26
2019-05-02T14:03:27.656Z,13.25
2019-05-02T14:05:59.599Z,13.25
2019-05-02T14:08:39.400Z,13.24
2019-05-02T14:11:29.327Z,13.21
2019-05-02T14:14:01.969Z,13.20
2019-05-02T14:16:34.351Z,13.20
2019-05-02T14:19:06.298Z,13.21
2019-05-02T14:21:38.235Z,13.24
2019-05-02T14:24:11.785Z,13.26
2019-05-02T14:26:44.100Z,13.26
2019-05-02T14:29:16.488Z,13.26
2019-05-02T14:31:48.658Z,13.23
2019-05-02T14:34:34.478Z,13.24
2019-05-02T14:37:06.429Z,13.21
2019-05-02T14:39:38.404Z,13.19
2019-05-02T14:42:15.324Z,13.18
2019-05-02T14:45:04.431Z,13.17
2019-05-02T14:47:19.638Z,13.16
2019-05-02T14:49:52.250Z,13.14
2019-05-02T14:52:24.448Z,13.13
2019-05-02T14:54:56.373Z,13.13
2019-05-02T14:57:28.325Z,13.13
2019-05-02T15:00:03.098Z,13.13
2019-05-02T15:02:39.186Z,13.13
2019-05-02T15:05:12.686Z,13.12
2019-05-02T15:07:56.785Z,13.12
2019-05-02T15:10:28.981Z,13.13
2019-05-02T15:13:03.820Z,13.13
2019-05-02T15:15:40.786Z,13.09
2019-05-02T15:18:15.829Z,13.08
2019-05-02T15:20:42.429Z,13.06
2019-05-02T15:23:19.612Z,13.05
2019-05-02T15:25:52.529Z,13.03
2019-05-02T15:28:23.158Z,13.02
2019-05-02T15:31:05.710Z,13.02
2019-05-02T15:33:42.375Z,13.02
2019-05-02T15:36:14.350Z,13.02
2019-05-02T15:38:47.491Z,13.01
2019-05-02T15:41:19.544Z,13.02
2019-05-02T15:43:52.346Z,13.02
2019-05-02T15:46:28.139Z,13.04
2019-05-02T15:49:01.732Z,13.03
2019-05-02T15:51:32.866Z,13.03
2019-05-02T15:54:08.891Z,13.02
2019-05-02T15:57:00.793Z,13.01
2019-05-02T15:59:45.091Z,12.97
2019-05-02T16:02:09.532Z,12.93
2019-05-02T16:04:42.408Z,12.84
2019-05-02T16:07:14.369Z,12.76
2019-05-02T16:09:51.705Z,12.61
2019-05-02T16:12:22.232Z,12.49
2019-05-02T16:14:54.277Z,12.42
2019-05-02T16:17:27.857Z,12.35
2019-05-02T16:20:07.657Z,12.28
2019-05-02T16:22:38.317Z,12.20
2019-05-02T16:25:09.934Z,12.14
2019-05-02T16:27:52.731Z,12.13
2019-05-02T16:30:25.684Z,12.15
2019-05-02T16:32:59.358Z,12.14
2019-05-02T16:35:35.667Z,12.15
2019-05-02T16:38:07.611Z,12.16
2019-05-02T16:40:41.763Z,12.16
2019-05-02T16:43:13.280Z,12.19
2019-05-02T16:45:45.372Z,12.20
2019-05-02T16:48:18.997Z,12.22
2019-05-02T16:50:51.713Z,12.24
2019-05-02T16:53:26.215Z,12.28
2019-05-02T16:55:58.490Z,12.31
2019-05-02T16:58:31.917Z,12.33
2019-05-02T17:01:05.306Z,12.33
2019-05-02T17:03:37.619Z,12.34
2019-05-02T17:06:09.615Z,12.34
2019-05-02T17:08:58.328Z,12.35
2019-05-02T17:11:35.979Z,12.35
2019-05-02T17:14:12.124Z,12.34
2019-05-02T17:16:42.175Z,12.34
2019-05-02T17:19:14.187Z,12.35
2019-05-02T17:21:53.790Z,12.36
2019-05-02T17:24:24.597Z,12.34
2019-05-02T17:26:53.465Z,12.35
2019-05-02T17:29:25.417Z,12.35
2019-05-02T17:31:59.210Z,12.34
2019-05-02T17:34:34.835Z,12.34
2019-05-02T17:37:11.170Z,12.34
2019-05-02T17:39:42.690Z,12.35
2019-05-02T17:42:12.506Z,12.34
2019-05-02T17:44:44.942Z,12.34
2019-05-02T17:47:16.904Z,12.35
2019-05-02T17:49:57.906Z,12.33
2019-05-02T17:52:34.558Z,12.33
2019-05-02T17:55:07.823Z,12.32
2019-05-02T17:57:42.800Z,12.33
2019-05-02T18:00:17.806Z,12.35
2019-05-02T18:02:51.832Z,12.31
2019-05-02T18:05:26.543Z,12.32
2019-05-02T18:07:57.507Z,12.31
2019-05-02T18:10:29.830Z,12.32
2019-05-02T18:13:02.653Z,12.30
2019-05-02T18:15:36.294Z,12.29
2019-05-02T18:18:08.393Z,12.28
2019-05-02T18:20:42.878Z,12.26
2019-05-02T18:23:18.705Z,12.26
2019-05-02T18:25:47.990Z,12.24
2019-05-02T18:28:22.249Z,12.20
2019-05-02T18:30:57.131Z,12.16
2019-05-02T18:33:30.621Z,12.14
2019-05-02T18:36:02.890Z,12.12
2019-05-02T18:38:34.828Z,12.10
2019-05-02T18:41:07.955Z,12.08
2019-05-02T18:43:43.590Z,12.08
2019-05-02T18:46:13.702Z,12.05
2019-05-02T18:48:48.900Z,12.03
2019-05-02T18:51:19.322Z,11.97
2019-05-02T18:53:52.916Z,11.95
2019-05-02T18:56:25.093Z,11.91
2019-05-02T18:58:57.095Z,11.91
2019-05-02T19:01:29.461Z,11.91
2019-05-02T19:04:02.104Z,11.92
2019-05-02T19:06:36.207Z,11.91
2019-05-02T19:09:12.740Z,11.91
2019-05-02T19:11:44.813Z,11.85
2019-05-02T19:14:22.255Z,11.91
2019-05-02T19:16:52.126Z,11.98
2019-05-02T19:19:27.360Z,11.98
2019-05-02T19:21:57.977Z,11.96
2019-05-02T19:24:32.879Z,11.92
2019-05-02T19:27:04.351Z,11.86
2019-05-02T19:29:36.639Z,11.84
2019-05-02T19:32:12.238Z,11.83
2019-05-02T19:34:46.583Z,11.81
2019-05-02T19:37:18.655Z,11.81
2019-05-02T19:39:52.532Z,11.80
2019-05-02T19:42:26.239Z,11.75
2019-05-02T19:45:03.664Z,11.74
2019-05-02T19:47:32.579Z,11.66
2019-05-02T19:50:15.163Z,11.62
2019-05-02T19:52:47.119Z,11.51
2019-05-02T19:55:20.096Z,11.42
2019-05-02T19:57:56.619Z,11.34
2019-05-02T20:00:29.176Z,11.33
2019-05-02T20:03:04.214Z,11.27
2019-05-02T20:05:36.585Z,11.22
2019-05-02T20:08:09.747Z,11.17
2019-05-02T20:10:42.650Z,11.14
2019-05-02T20:13:14.708Z,11.14
2019-05-02T20:15:48.335Z,11.13
2019-05-02T20:18:20.282Z,11.07
2019-05-02T20:21:23.152Z,11.03
2019-05-02T20:23:46.241Z,11.04
2019-05-02T20:28:49.544Z,11.02
2019-05-02T20:31:21.740Z,11.03
2019-05-02T20:33:53.913Z,11.02
2019-05-02T20:36:25.863Z,11.01
2019-05-02T20:39:02.302Z,11.02
2019-05-02T20:41:34.595Z,11.01
2019-05-02T20:44:06.638Z,11.00
2019-05-02T20:46:38.564Z,11.01
2019-05-02T20:49:12.611Z,11.05
2019-05-02T20:51:44.409Z,11.05
2019-05-02T20:54:16.365Z,11.00
2019-05-02T20:56:48.295Z,10.95
2019-05-02T20:59:21.827Z,10.93
2019-05-02T21:01:53.882Z,10.88
2019-05-02T21:04:25.866Z,10.87
2019-05-02T21:07:09.129Z,10.87
2019-05-02T21:09:54.992Z,10.87
2019-05-02T21:12:27.058Z,10.86
2019-05-02T21:14:58.985Z,10.89
2019-05-02T21:17:32.695Z,10.90
2019-05-02T21:20:08.262Z,10.90
2019-05-02T21:22:42.050Z,10.87
2019-05-02T21:25:14.239Z,10.87
2019-05-02T21:27:46.186Z,10.85
2019-05-02T21:30:23.067Z,10.81
2019-05-02T21:32:57.704Z,10.77
2019-05-02T21:35:31.776Z,10.72
2019-05-02T21:38:03.714Z,10.70
2019-05-02T21:40:35.824Z,10.66
2019-05-02T21:43:07.832Z,10.58
2019-05-02T21:45:39.787Z,10.55
2019-05-02T21:48:12.034Z,10.58
2019-05-02T21:50:56.119Z,10.56
2019-05-02T21:53:49.156Z,10.55
2019-05-02T21:56:17.528Z,10.55
2019-05-02T21:59:03.296Z,10.53
2019-05-02T22:01:42.064Z,10.52
2019-05-02T22:04:14.084Z,10.53
2019-05-02T22:06:47.742Z,10.51
2019-05-02T22:09:22.856Z,10.50
2019-05-02T22:11:55.990Z,10.46
2019-05-02T22:14:28.413Z,10.41
2019-05-02T22:17:02.333Z,10.40
2019-05-02T22:19:36.027Z,10.37
2019-05-02T22:22:08.113Z,10.38
2019-05-02T22:24:42.101Z,10.41
2019-05-02T22:27:14.304Z,10.40
2019-05-02T22:29:47.789Z,10.35
2019-05-02T22:32:19.730Z,10.33
2019-05-02T22:34:55.901Z,10.30
2019-05-02T22:37:28.834Z,10.30
2019-05-02T22:40:03.939Z,10.31
2019-05-02T22:42:36.109Z,10.29
2019-05-02T22:45:09.381Z,10.30
2019-05-02T22:47:42.603Z,10.32
2019-05-02T22:50:14.810Z,10.33
2019-05-02T22:52:47.149Z,10.34
2019-05-02T22:55:19.108Z,10.35
2019-05-02T22:57:53.007Z,10.34
2019-05-02T23:00:26.989Z,10.33
2019-05-02T23:03:01.852Z,10.34
2019-05-02T23:05:37.253Z,10.34
2019-05-02T23:08:09.145Z,10.30
2019-05-02T23:10:43.994Z,10.26
2019-05-02T23:13:17.545Z,10.23
2019-05-02T23:15:49.520Z,10.16
2019-05-02T23:18:22.797Z,10.15
2019-05-02T23:20:54.797Z,10.15
2019-05-02T23:23:26.733Z,10.11
2019-05-02T23:26:15.526Z,10.07
2019-05-02T23:28:58.253Z,10.01
2019-05-02T23:31:31.753Z,9.99
2019-05-02T23:34:03.863Z,9.99
2019-05-02T23:36:35.790Z,9.98
2019-05-02T23:39:12.465Z,10.07
2019-05-02T23:41:44.671Z,10.09
2019-05-02T23:44:16.643Z,10.11
2019-05-02T23:46:48.570Z,10.12
2019-05-02T23:49:22.010Z,10.13
2019-05-02T23:51:54.272Z,10.14
2019-05-02T23:54:26.315Z,10.13
2019-05-02T23:56:58.267Z,10.12
2019-05-02T23:59:31.794Z,10.08
